Indianapolis International Airport
KIND : now visible

Airfield :











YOU CAN JOIN US ON...

 
LOGIN :

Register | Disclaimer

   EN    FR    IT 

 









Legend :    VFR   Marginal VFR   IFR   Intensive IFR   Very Intensive IFR
Visi :
Ceiling :
>= 8 km
>= 3000ft
5 to 8 km
1000 to 3000 ft
1500m to 5 km
500 to 1000 ft
800 to 1500m
200 to 500 ft
< 800m
< 200 ft
Symbols :   Thunderstorms  Fog  Heavy snow  Heavy precipitations  Wind > 20 kt






- Airport Elevation : 797 ft
- IATA code : IND


KIND - Indianapolis International

CURRENT METAR :
  • 212054Z 29010G22KT 10SM FEW040 SCT055 BKN080 08/M03 A3009 RMK AO2 SLP193 60000 T00831033 58017

EXPIRED METARs :
  • 211954Z 28011G19KT 10SM SCT045 BKN055 06/M03 A3012 RMK AO2 RAB50E53SNB50E53 SLP205 P0000 T00561028
  • 211854Z 28013G21KT 10SM SCT035 SCT043 BKN050 07/M02 A3013 RMK AO2 SLP209 T00671017

TAF KIND
Valid from the 21 at 20:00 until the 23 at 00:00 UTC


212021Z 2120/2224 29013G21KT P6SM VCSH SCT045 BKN080
FM220100 28009KT P6SM SCT120
FM221500 29008KT P6SM FEW250
FM222300 26008KT P6SM FEW250
KZID FIR / North America



MET'MAP, your aeronautical weather chart ! - Copyright ORBIFLY December 2007 - Disclaimer

ORBIFLY MET'MAP TEAM :

Programming & Development : Alexandra Zaïnal
Concept & original design : Baudouin d'Aumeries
Assistance for programming : Marc-Olivier Méhu
Technical & hardware support : Manuel Goepfert

Contact : metmap@orbifly.com




SOURCES & CREDITS :

   NOAA       Earth
Advisory